sensor_id;sensor_type;location;lat;lon;timestamp;pressure;altitude;pressure_sealevel;temperature;humidity
73633;BME280;61927;50.080;14.418;2023-05-23T00:01:29;98977.09;;;18.36;53.94
73633;BME280;61927;50.080;14.418;2023-05-23T00:04:05;98983.47;;;18.35;53.81
73633;BME280;61927;50.080;14.418;2023-05-23T00:06:31;98985.44;;;18.33;54.20
73633;BME280;61927;50.080;14.418;2023-05-23T00:08:57;98988.28;;;18.31;54.63
73633;BME280;61927;50.080;14.418;2023-05-23T00:11:23;98981.09;;;18.32;54.87
73633;BME280;61927;50.080;14.418;2023-05-23T00:13:52;98988.59;;;18.28;54.54
73633;BME280;61927;50.080;14.418;2023-05-23T00:16:18;98988.06;;;18.25;54.85
73633;BME280;61927;50.080;14.418;2023-05-23T00:18:44;98993.06;;;18.20;55.15
73633;BME280;61927;50.080;14.418;2023-05-23T00:21:10;98995.22;;;18.16;55.26
73633;BME280;61927;50.080;14.418;2023-05-23T00:23:38;98995.22;;;18.16;55.33
73633;BME280;61927;50.080;14.418;2023-05-23T00:26:07;99001.03;;;18.12;55.88
73633;BME280;61927;50.080;14.418;2023-05-23T00:28:33;98991.59;;;18.07;55.64
73633;BME280;61927;50.080;14.418;2023-05-23T00:30:58;98994.44;;;18.06;55.70
73633;BME280;61927;50.080;14.418;2023-05-23T00:33:24;98996.13;;;18.07;56.23
73633;BME280;61927;50.080;14.418;2023-05-23T00:35:50;98990.16;;;18.13;56.39
73633;BME280;61927;50.080;14.418;2023-05-23T00:38:16;98986.16;;;18.17;56.41
73633;BME280;61927;50.080;14.418;2023-05-23T00:40:42;98991.53;;;18.17;56.27
73633;BME280;61927;50.080;14.418;2023-05-23T00:43:07;98987.63;;;18.12;56.11
73633;BME280;61927;50.080;14.418;2023-05-23T00:45:33;98985.38;;;18.07;56.56
73633;BME280;61927;50.080;14.418;2023-05-23T00:47:59;98982.72;;;18.07;56.40
73633;BME280;61927;50.080;14.418;2023-05-23T00:50:26;98981.72;;;18.08;56.64
73633;BME280;61927;50.080;14.418;2023-05-23T00:52:58;98980.16;;;18.05;56.56
73633;BME280;61927;50.080;14.418;2023-05-23T00:55:24;98974.25;;;18.02;56.74
73633;BME280;61927;50.080;14.418;2023-05-23T00:57:52;98981.47;;;18.01;57.08
73633;BME280;61927;50.080;14.418;2023-05-23T01:00:20;98977.09;;;18.00;56.89
73633;BME280;61927;50.080;14.418;2023-05-23T01:02:47;98978.09;;;17.99;56.74
73633;BME280;61927;50.080;14.418;2023-05-23T01:05:16;98972.88;;;17.98;56.79
73633;BME280;61927;50.080;14.418;2023-05-23T01:07:51;98961.00;;;18.00;56.71
73633;BME280;61927;50.080;14.418;2023-05-23T01:10:20;98968.50;;;17.97;56.71
73633;BME280;61927;50.080;14.418;2023-05-23T01:15:51;98966.44;;;17.91;56.68
73633;BME280;61927;50.080;14.418;2023-05-23T01:18:32;98947.13;;;17.87;57.04
73633;BME280;61927;50.080;14.418;2023-05-23T01:21:22;98943.75;;;17.85;57.09
73633;BME280;61927;50.080;14.418;2023-05-23T01:29:07;98944.97;;;17.91;57.07
73633;BME280;61927;50.080;14.418;2023-05-23T01:31:45;98942.22;;;17.83;57.38
73633;BME280;61927;50.080;14.418;2023-05-23T01:34:12;98948.19;;;17.77;57.57
73633;BME280;61927;50.080;14.418;2023-05-23T01:36:41;98956.53;;;17.73;58.16
73633;BME280;61927;50.080;14.418;2023-05-23T01:39:07;98953.31;;;17.70;58.04
73633;BME280;61927;50.080;14.418;2023-05-23T01:41:32;98950.09;;;17.66;58.43
73633;BME280;61927;50.080;14.418;2023-05-23T01:43:58;98947.84;;;17.62;58.25
73633;BME280;61927;50.080;14.418;2023-05-23T01:46:26;98961.31;;;17.52;58.75
73633;BME280;61927;50.080;14.418;2023-05-23T01:48:53;98967.56;;;17.43;59.12
73633;BME280;61927;50.080;14.418;2023-05-23T01:51:21;98978.22;;;17.35;59.56
73633;BME280;61927;50.080;14.418;2023-05-23T01:53:48;98975.28;;;17.28;59.63
73633;BME280;61927;50.080;14.418;2023-05-23T01:56:14;98976.13;;;17.29;59.53
73633;BME280;61927;50.080;14.418;2023-05-23T01:58:40;98974.28;;;17.29;59.41
73633;BME280;61927;50.080;14.418;2023-05-23T02:01:06;98985.16;;;17.28;59.74
73633;BME280;61927;50.080;14.418;2023-05-23T02:03:31;98991.22;;;17.30;59.86
73633;BME280;61927;50.080;14.418;2023-05-23T02:05:57;98991.38;;;17.28;59.86
73633;BME280;61927;50.080;14.418;2023-05-23T02:08:23;99000.16;;;17.21;60.10
73633;BME280;61927;50.080;14.418;2023-05-23T02:10:48;98997.91;;;17.16;60.30
73633;BME280;61927;50.080;14.418;2023-05-23T02:13:14;99014.59;;;17.10;60.73
73633;BME280;61927;50.080;14.418;2023-05-23T02:15:40;99013.41;;;16.85;60.88
73633;BME280;61927;50.080;14.418;2023-05-23T02:18:06;99011.59;;;16.57;61.22
73633;BME280;61927;50.080;14.418;2023-05-23T02:20:31;99019.38;;;16.40;61.35
73633;BME280;61927;50.080;14.418;2023-05-23T02:22:57;99023.31;;;16.17;61.73
73633;BME280;61927;50.080;14.418;2023-05-23T02:25:22;99026.66;;;15.90;62.54
73633;BME280;61927;50.080;14.418;2023-05-23T02:27:48;99021.03;;;15.83;62.55
73633;BME280;61927;50.080;14.418;2023-05-23T02:30:14;99029.06;;;15.83;62.71
73633;BME280;61927;50.080;14.418;2023-05-23T02:32:39;99024.13;;;15.89;62.20
73633;BME280;61927;50.080;14.418;2023-05-23T02:35:05;99025.69;;;15.91;62.08
73633;BME280;61927;50.080;14.418;2023-05-23T02:37:31;99033.28;;;15.96;61.68
73633;BME280;61927;50.080;14.418;2023-05-23T02:39:56;99025.13;;;15.88;61.32
73633;BME280;61927;50.080;14.418;2023-05-23T02:42:22;99026.50;;;15.72;61.61
73633;BME280;61927;50.080;14.418;2023-05-23T02:44:48;99027.69;;;15.49;62.79
73633;BME280;61927;50.080;14.418;2023-05-23T02:47:13;99020.03;;;15.35;63.16
73633;BME280;61927;50.080;14.418;2023-05-23T02:49:39;99017.09;;;15.38;63.04
73633;BME280;61927;50.080;14.418;2023-05-23T02:52:05;99024.00;;;15.50;62.81
73633;BME280;61927;50.080;14.418;2023-05-23T02:54:30;99011.34;;;15.52;62.59
73633;BME280;61927;50.080;14.418;2023-05-23T02:56:57;99016.84;;;15.50;62.83
73633;BME280;61927;50.080;14.418;2023-05-23T02:59:22;99012.91;;;15.55;62.88
73633;BME280;61927;50.080;14.418;2023-05-23T03:01:48;99000.94;;;15.49;63.11
73633;BME280;61927;50.080;14.418;2023-05-23T03:04:14;99011.63;;;15.49;63.11
73633;BME280;61927;50.080;14.418;2023-05-23T03:06:40;99000.59;;;15.33;63.61
73633;BME280;61927;50.080;14.418;2023-05-23T03:09:08;99008.19;;;15.28;63.67
73633;BME280;61927;50.080;14.418;2023-05-23T03:11:35;98999.06;;;15.30;63.79
73633;BME280;61927;50.080;14.418;2023-05-23T03:14:00;98998.06;;;15.31;63.78
73633;BME280;61927;50.080;14.418;2023-05-23T03:16:26;98995.84;;;15.36;63.65
73633;BME280;61927;50.080;14.418;2023-05-23T03:18:51;98990.22;;;15.39;63.69
73633;BME280;61927;50.080;14.418;2023-05-23T03:21:17;98988.53;;;15.38;63.73
73633;BME280;61927;50.080;14.418;2023-05-23T03:23:43;98980.78;;;15.35;63.69
73633;BME280;61927;50.080;14.418;2023-05-23T03:26:09;98976.56;;;15.42;63.56
73633;BME280;61927;50.080;14.418;2023-05-23T03:28:34;98986.16;;;15.55;63.31
73633;BME280;61927;50.080;14.418;2023-05-23T03:31:00;98979.34;;;15.71;62.54
73633;BME280;61927;50.080;14.418;2023-05-23T03:33:25;98982.44;;;15.76;62.44
73633;BME280;61927;50.080;14.418;2023-05-23T03:35:51;98982.72;;;15.83;62.35
73633;BME280;61927;50.080;14.418;2023-05-23T03:38:17;98980.06;;;15.93;61.93
73633;BME280;61927;50.080;14.418;2023-05-23T03:40:43;98969.50;;;16.01;61.72
73633;BME280;61927;50.080;14.418;2023-05-23T03:43:08;98961.59;;;16.09;61.57
73633;BME280;61927;50.080;14.418;2023-05-23T03:45:34;98974.16;;;16.18;61.33
73633;BME280;61927;50.080;14.418;2023-05-23T03:47:59;98967.94;;;16.27;60.99
73633;BME280;61927;50.080;14.418;2023-05-23T03:50:26;98963.41;;;16.37;60.15
73633;BME280;61927;50.080;14.418;2023-05-23T03:52:52;98967.22;;;16.44;59.71
73633;BME280;61927;50.080;14.418;2023-05-23T03:55:21;98970.31;;;16.50;59.54
73633;BME280;61927;50.080;14.418;2023-05-23T03:57:49;98958.03;;;16.57;59.05
73633;BME280;61927;50.080;14.418;2023-05-23T04:00:16;98952.81;;;16.65;58.45
73633;BME280;61927;50.080;14.418;2023-05-23T04:02:41;98953.63;;;16.75;58.06
73633;BME280;61927;50.080;14.418;2023-05-23T04:05:08;98962.19;;;16.88;57.43
73633;BME280;61927;50.080;14.418;2023-05-23T04:07:33;98951.03;;;16.93;57.12
73633;BME280;61927;50.080;14.418;2023-05-23T04:09:59;98956.38;;;16.93;57.36
73633;BME280;61927;50.080;14.418;2023-05-23T04:12:25;98958.22;;;16.92;57.45
73633;BME280;61927;50.080;14.418;2023-05-23T04:14:51;98949.03;;;16.95;57.26
73633;BME280;61927;50.080;14.418;2023-05-23T04:17:16;98953.56;;;16.94;57.42
73633;BME280;61927;50.080;14.418;2023-05-23T04:19:43;98956.38;;;16.93;57.53
73633;BME280;61927;50.080;14.418;2023-05-23T04:22:09;98972.31;;;16.94;57.73
73633;BME280;61927;50.080;14.418;2023-05-23T04:24:35;98969.06;;;17.00;57.73
73633;BME280;61927;50.080;14.418;2023-05-23T04:27:01;98974.84;;;16.96;58.18
73633;BME280;61927;50.080;14.418;2023-05-23T04:29:27;98973.31;;;16.93;58.54
73633;BME280;61927;50.080;14.418;2023-05-23T04:31:56;98963.31;;;16.86;59.06
73633;BME280;61927;50.080;14.418;2023-05-23T04:34:22;98967.16;;;16.83;59.25
73633;BME280;61927;50.080;14.418;2023-05-23T04:36:48;98967.16;;;16.83;59.29
73633;BME280;61927;50.080;14.418;2023-05-23T04:39:14;98967.28;;;16.82;59.27
73633;BME280;61927;50.080;14.418;2023-05-23T04:41:41;98962.06;;;16.80;59.40
73633;BME280;61927;50.080;14.418;2023-05-23T04:44:10;98960.38;;;16.79;59.63
73633;BME280;61927;50.080;14.418;2023-05-23T04:46:35;98969.81;;;16.83;59.52
73633;BME280;61927;50.080;14.418;2023-05-23T04:49:02;98957.97;;;16.86;58.91
73633;BME280;61927;50.080;14.418;2023-05-23T04:51:28;98955.28;;;16.86;58.99
73633;BME280;61927;50.080;14.418;2023-05-23T04:53:54;98946.41;;;16.85;58.33
73633;BME280;61927;50.080;14.418;2023-05-23T04:56:20;98941.88;;;16.86;57.88
73633;BME280;61927;50.080;14.418;2023-05-23T04:58:46;98947.25;;;16.86;57.73
73633;BME280;61927;50.080;14.418;2023-05-23T05:01:12;98940.72;;;16.98;57.88
73633;BME280;61927;50.080;14.418;2023-05-23T05:03:39;98938.81;;;17.08;57.69
73633;BME280;61927;50.080;14.418;2023-05-23T05:06:05;98932.81;;;17.24;57.81
73633;BME280;61927;50.080;14.418;2023-05-23T05:08:31;98938.59;;;17.29;57.46
73633;BME280;61927;50.080;14.418;2023-05-23T05:10:56;98931.97;;;17.23;56.63
73633;BME280;61927;50.080;14.418;2023-05-23T05:13:22;98923.78;;;17.25;56.48
73633;BME280;61927;50.080;14.418;2023-05-23T05:15:48;98919.28;;;17.25;56.33
73633;BME280;61927;50.080;14.418;2023-05-23T05:18:13;98918.28;;;17.26;56.13
73633;BME280;61927;50.080;14.418;2023-05-23T05:20:40;98930.84;;;17.26;55.99
73633;BME280;61927;50.080;14.418;2023-05-23T05:23:06;98940.47;;;17.19;55.71
73633;BME280;61927;50.080;14.418;2023-05-23T05:25:34;98945.00;;;17.18;58.31
73633;BME280;61927;50.080;14.418;2023-05-23T05:28:01;98945.84;;;17.19;58.61
73633;BME280;61927;50.080;14.418;2023-05-23T05:30:32;98944.00;;;17.19;59.10
73633;BME280;61927;50.080;14.418;2023-05-23T05:33:02;98946.78;;;17.27;59.02
73633;BME280;61927;50.080;14.418;2023-05-23T05:35:31;98943.34;;;17.35;58.50
73633;BME280;61927;50.080;14.418;2023-05-23T05:37:58;98952.78;;;17.39;58.35
73633;BME280;61927;50.080;14.418;2023-05-23T05:40:23;98956.78;;;17.53;57.74
73633;BME280;61927;50.080;14.418;2023-05-23T05:42:49;98956.16;;;17.68;57.54
73633;BME280;61927;50.080;14.418;2023-05-23T05:45:15;98965.06;;;17.87;56.76
73633;BME280;61927;50.080;14.418;2023-05-23T05:47:41;98959.38;;;17.90;55.76
73633;BME280;61927;50.080;14.418;2023-05-23T05:50:07;98956.31;;;18.02;56.18
73633;BME280;61927;50.080;14.418;2023-05-23T05:52:34;98964.97;;;18.14;55.83
73633;BME280;61927;50.080;14.418;2023-05-23T05:55:07;98965.91;;;18.23;55.66
73633;BME280;61927;50.080;14.418;2023-05-23T05:57:36;98965.44;;;18.27;55.65
73633;BME280;61927;50.080;14.418;2023-05-23T06:00:07;98958.31;;;18.18;55.87
73633;BME280;61927;50.080;14.418;2023-05-23T06:02:38;98949.34;;;18.10;55.70
73633;BME280;61927;50.080;14.418;2023-05-23T06:05:05;98958.63;;;18.15;55.37
73633;BME280;61927;50.080;14.418;2023-05-23T06:07:33;98962.38;;;18.22;55.07
73633;BME280;61927;50.080;14.418;2023-05-23T06:09:58;98968.44;;;18.24;55.13
73633;BME280;61927;50.080;14.418;2023-05-23T06:12:24;98965.50;;;18.35;54.71
73633;BME280;61927;50.080;14.418;2023-05-23T06:14:50;98975.72;;;18.32;54.72
73633;BME280;61927;50.080;14.418;2023-05-23T06:17:15;98977.09;;;18.18;55.57
73633;BME280;61927;50.080;14.418;2023-05-23T06:19:41;98991.75;;;18.24;55.34
73633;BME280;61927;50.080;14.418;2023-05-23T06:22:07;98985.97;;;18.36;55.18
73633;BME280;61927;50.080;14.418;2023-05-23T06:24:32;98992.97;;;18.29;56.74
73633;BME280;61927;50.080;14.418;2023-05-23T06:26:58;99001.50;;;18.25;57.14
73633;BME280;61927;50.080;14.418;2023-05-23T06:29:24;98996.28;;;18.23;57.37
73633;BME280;61927;50.080;14.418;2023-05-23T06:31:50;98997.66;;;18.27;57.39
73633;BME280;61927;50.080;14.418;2023-05-23T06:34:15;98995.97;;;18.26;57.63
73633;BME280;61927;50.080;14.418;2023-05-23T06:36:42;98989.53;;;18.19;57.84
73633;BME280;61927;50.080;14.418;2023-05-23T06:39:08;98988.53;;;18.02;58.51
73633;BME280;61927;50.080;14.418;2023-05-23T06:41:38;98992.97;;;17.94;58.35
73633;BME280;61927;50.080;14.418;2023-05-23T06:44:03;98999.59;;;17.99;58.75
73633;BME280;61927;50.080;14.418;2023-05-23T06:46:30;99002.88;;;18.11;58.46
73633;BME280;61927;50.080;14.418;2023-05-23T06:48:55;99005.88;;;18.26;58.29
73633;BME280;61927;50.080;14.418;2023-05-23T06:51:21;99004.72;;;18.28;57.90
73633;BME280;61927;50.080;14.418;2023-05-23T06:53:47;99007.63;;;18.35;57.66
73633;BME280;61927;50.080;14.418;2023-05-23T06:56:13;99009.75;;;18.49;56.91
73633;BME280;61927;50.080;14.418;2023-05-23T06:58:38;99009.06;;;18.47;56.23
73633;BME280;61927;50.080;14.418;2023-05-23T07:01:04;99010.75;;;18.48;55.76
73633;BME280;61927;50.080;14.418;2023-05-23T07:03:30;99009.22;;;18.46;55.45
73633;BME280;61927;50.080;14.418;2023-05-23T07:05:56;99014.75;;;18.44;56.05
73633;BME280;61927;50.080;14.418;2023-05-23T07:08:21;99009.22;;;18.46;55.61
73633;BME280;61927;50.080;14.418;2023-05-23T07:10:47;99010.59;;;18.50;54.83
73633;BME280;61927;50.080;14.418;2023-05-23T07:13:13;99008.53;;;18.61;54.48
73633;BME280;61927;50.080;14.418;2023-05-23T07:15:38;99010.66;;;18.76;54.03
73633;BME280;61927;50.080;14.418;2023-05-23T07:18:04;99005.97;;;18.78;54.12
73633;BME280;61927;50.080;14.418;2023-05-23T07:20:32;98997.81;;;18.87;53.95
73633;BME280;61927;50.080;14.418;2023-05-23T07:22:57;99010.66;;;19.01;53.67
73633;BME280;61927;50.080;14.418;2023-05-23T07:25:23;99006.22;;;19.18;52.94
73633;BME280;61927;50.080;14.418;2023-05-23T07:27:49;99002.88;;;19.24;52.59
73633;BME280;61927;50.080;14.418;2023-05-23T07:30:15;99008.38;;;19.15;52.70
73633;BME280;61927;50.080;14.418;2023-05-23T07:32:41;99010.44;;;19.21;52.18
73633;BME280;61927;50.080;14.418;2023-05-23T07:35:07;99015.19;;;19.27;51.63
73633;BME280;61927;50.080;14.418;2023-05-23T07:37:32;99018.03;;;19.25;51.92
73633;BME280;61927;50.080;14.418;2023-05-23T07:39:59;99022.41;;;19.26;51.51
73633;BME280;61927;50.080;14.418;2023-05-23T07:42:25;99018.78;;;19.10;51.86
73633;BME280;61927;50.080;14.418;2023-05-23T07:44:51;99019.66;;;19.18;51.90
73633;BME280;61927;50.080;14.418;2023-05-23T07:47:16;99027.94;;;19.25;51.68
73633;BME280;61927;50.080;14.418;2023-05-23T07:49:42;99025.78;;;19.02;52.36
73633;BME280;61927;50.080;14.418;2023-05-23T07:52:09;99032.13;;;18.93;53.27
73633;BME280;61927;50.080;14.418;2023-05-23T07:54:34;99030.16;;;18.78;54.34
73633;BME280;61927;50.080;14.418;2023-05-23T07:57:00;99034.91;;;18.84;53.99
73633;BME280;61927;50.080;14.418;2023-05-23T07:59:26;99038.66;;;18.91;54.52
73633;BME280;61927;50.080;14.418;2023-05-23T08:01:51;99035.69;;;19.28;53.88
73633;BME280;61927;50.080;14.418;2023-05-23T08:04:17;99026.63;;;19.63;52.55
73633;BME280;61927;50.080;14.418;2023-05-23T08:06:43;99039.19;;;19.96;52.21
73633;BME280;61927;50.080;14.418;2023-05-23T08:09:12;99038.25;;;20.30;51.34
73633;BME280;61927;50.080;14.418;2023-05-23T08:11:38;99037.28;;;20.55;50.23
73633;BME280;61927;50.080;14.418;2023-05-23T08:14:03;99032.06;;;20.46;50.45
73633;BME280;61927;50.080;14.418;2023-05-23T08:16:30;99036.56;;;20.37;51.09
73633;BME280;61927;50.080;14.418;2023-05-23T08:18:55;99042.66;;;20.47;50.70
73633;BME280;61927;50.080;14.418;2023-05-23T08:21:22;99034.25;;;20.50;50.24
73633;BME280;61927;50.080;14.418;2023-05-23T08:23:49;99037.63;;;20.44;50.50
73633;BME280;61927;50.080;14.418;2023-05-23T08:26:15;99045.19;;;20.57;50.32
73633;BME280;61927;50.080;14.418;2023-05-23T08:28:41;99051.59;;;20.64;49.53
73633;BME280;61927;50.080;14.418;2023-05-23T08:31:07;99049.34;;;20.35;49.97
73633;BME280;61927;50.080;14.418;2023-05-23T08:33:33;99058.59;;;20.24;50.16
73633;BME280;61927;50.080;14.418;2023-05-23T08:35:58;99045.97;;;20.25;50.33
73633;BME280;61927;50.080;14.418;2023-05-23T08:38:24;99053.75;;;20.36;50.03
73633;BME280;61927;50.080;14.418;2023-05-23T08:40:51;99062.72;;;20.53;50.11
73633;BME280;61927;50.080;14.418;2023-05-23T08:43:18;99060.53;;;20.56;49.89
73633;BME280;61927;50.080;14.418;2023-05-23T08:45:44;99065.34;;;20.28;51.01
73633;BME280;61927;50.080;14.418;2023-05-23T08:48:12;99060.97;;;19.69;52.72
73633;BME280;61927;50.080;14.418;2023-05-23T08:50:45;99073.41;;;19.62;52.84
73633;BME280;61927;50.080;14.418;2023-05-23T08:53:15;99087.09;;;19.51;53.51
73633;BME280;61927;50.080;14.418;2023-05-23T08:55:48;99086.13;;;19.26;54.38
73633;BME280;61927;50.080;14.418;2023-05-23T08:58:21;99093.25;;;19.09;56.12
73633;BME280;61927;50.080;14.418;2023-05-23T09:00:50;99092.59;;;18.89;57.18
73633;BME280;61927;50.080;14.418;2023-05-23T09:03:17;99101.66;;;18.53;57.79
73633;BME280;61927;50.080;14.418;2023-05-23T09:05:43;99108.38;;;18.21;57.78
73633;BME280;61927;50.080;14.418;2023-05-23T09:08:09;99113.97;;;18.10;58.50
73633;BME280;61927;50.080;14.418;2023-05-23T09:10:35;99105.88;;;17.92;59.75
73633;BME280;61927;50.080;14.418;2023-05-23T09:13:00;99110.25;;;17.93;61.84
73633;BME280;61927;50.080;14.418;2023-05-23T09:15:28;99110.69;;;17.89;63.53
73633;BME280;61927;50.080;14.418;2023-05-23T09:17:59;99106.06;;;17.81;63.38
73633;BME280;61927;50.080;14.418;2023-05-23T09:20:29;99110.91;;;17.78;65.07
73633;BME280;61927;50.080;14.418;2023-05-23T09:22:57;99100.00;;;17.79;65.20
73633;BME280;61927;50.080;14.418;2023-05-23T09:25:23;99109.34;;;18.02;66.57
73633;BME280;61927;50.080;14.418;2023-05-23T09:27:51;99108.06;;;18.06;65.33
73633;BME280;61927;50.080;14.418;2023-05-23T09:30:16;99110.84;;;18.15;64.46
73633;BME280;61927;50.080;14.418;2023-05-23T09:32:56;99118.88;;;18.15;63.53
73633;BME280;61927;50.080;14.418;2023-05-23T09:35:22;99121.88;;;18.12;64.08
73633;BME280;61927;50.080;14.418;2023-05-23T09:37:48;99128.38;;;18.09;63.61
73633;BME280;61927;50.080;14.418;2023-05-23T09:40:15;99128.25;;;18.11;63.54
73633;BME280;61927;50.080;14.418;2023-05-23T09:42:42;99124.72;;;18.10;62.42
73633;BME280;61927;50.080;14.418;2023-05-23T09:45:09;99125.72;;;18.09;63.09
73633;BME280;61927;50.080;14.418;2023-05-23T09:47:35;99123.25;;;18.16;64.17
73633;BME280;61927;50.080;14.418;2023-05-23T09:50:00;99129.25;;;18.27;63.48
73633;BME280;61927;50.080;14.418;2023-05-23T09:52:26;99129.44;;;18.44;64.70
73633;BME280;61927;50.080;14.418;2023-05-23T09:54:53;99125.22;;;18.59;63.67
73633;BME280;61927;50.080;14.418;2023-05-23T09:57:20;99127.16;;;18.66;63.65
73633;BME280;61927;50.080;14.418;2023-05-23T09:59:52;99116.28;;;18.68;63.67
73633;BME280;61927;50.080;14.418;2023-05-23T10:02:53;99120.50;;;18.70;64.46
73633;BME280;61927;50.080;14.418;2023-05-23T10:05:49;99117.47;;;18.91;64.78
73633;BME280;61927;50.080;14.418;2023-05-23T10:08:20;99122.81;;;19.09;63.07
73633;BME280;61927;50.080;14.418;2023-05-23T10:13:27;99122.22;;;18.97;63.51
73633;BME280;61927;50.080;14.418;2023-05-23T10:16:08;99122.53;;;18.94;63.73
73633;BME280;61927;50.080;14.418;2023-05-23T10:18:44;99120.59;;;19.04;63.38
73633;BME280;61927;50.080;14.418;2023-05-23T10:21:23;99122.03;;;19.17;63.62
73633;BME280;61927;50.080;14.418;2023-05-23T10:23:54;99118.19;;;19.45;63.24
73633;BME280;61927;50.080;14.418;2023-05-23T10:26:20;99112.44;;;19.66;62.64
73633;BME280;61927;50.080;14.418;2023-05-23T10:28:47;99113.53;;;19.81;62.20
73633;BME280;61927;50.080;14.418;2023-05-23T10:31:14;99106.13;;;19.83;62.44
73633;BME280;61927;50.080;14.418;2023-05-23T10:33:43;99106.91;;;20.10;62.29
73633;BME280;61927;50.080;14.418;2023-05-23T10:36:16;99108.38;;;20.46;61.13
73633;BME280;61927;50.080;14.418;2023-05-23T10:41:30;99106.38;;;20.81;60.34
73633;BME280;61927;50.080;14.418;2023-05-23T10:44:25;99099.28;;;20.72;60.29
73633;BME280;61927;50.080;14.418;2023-05-23T10:49:42;99098.53;;;20.37;61.41
73633;BME280;61927;50.080;14.418;2023-05-23T10:52:10;99098.38;;;20.30;62.17
73633;BME280;61927;50.080;14.418;2023-05-23T10:57:11;99089.41;;;20.14;62.90
73633;BME280;61927;50.080;14.418;2023-05-23T10:59:41;99092.22;;;20.04;63.28
73633;BME280;61927;50.080;14.418;2023-05-23T11:02:12;99102.28;;;19.94;63.84
73633;BME280;61927;50.080;14.418;2023-05-23T11:04:40;99104.03;;;19.69;65.03
73633;BME280;61927;50.080;14.418;2023-05-23T11:07:32;99109.09;;;19.46;65.67
73633;BME280;61927;50.080;14.418;2023-05-23T11:10:11;99109.00;;;19.30;65.60
73633;BME280;61927;50.080;14.418;2023-05-23T11:12:43;99121.56;;;19.21;65.38
73633;BME280;61927;50.080;14.418;2023-05-23T11:17:49;99121.03;;;19.18;65.73
73633;BME280;61927;50.080;14.418;2023-05-23T11:20:15;99118.06;;;19.03;66.82
73633;BME280;61927;50.080;14.418;2023-05-23T11:28:04;99112.19;;;18.82;68.06
73633;BME280;61927;50.080;14.418;2023-05-23T11:30:30;99114.88;;;18.82;68.87
73633;BME280;61927;50.080;14.418;2023-05-23T11:32:58;99118.78;;;18.87;69.24
73633;BME280;61927;50.080;14.418;2023-05-23T11:35:23;99114.63;;;18.93;68.03
73633;BME280;61927;50.080;14.418;2023-05-23T11:37:49;99112.25;;;18.90;68.21
73633;BME280;61927;50.080;14.418;2023-05-23T11:40:28;99116.47;;;18.92;67.27
73633;BME280;61927;50.080;14.418;2023-05-23T11:42:54;99103.31;;;19.07;67.97
73633;BME280;61927;50.080;14.418;2023-05-23T11:45:26;99096.03;;;19.25;66.99
73633;BME280;61927;50.080;14.418;2023-05-23T11:47:52;99102.56;;;19.49;66.18
73633;BME280;61927;50.080;14.418;2023-05-23T11:50:18;99103.38;;;19.67;64.65
73633;BME280;61927;50.080;14.418;2023-05-23T11:52:49;99101.91;;;19.81;64.21
73633;BME280;61927;50.080;14.418;2023-05-23T11:55:19;99108.34;;;19.88;63.91
73633;BME280;61927;50.080;14.418;2023-05-23T11:57:46;99107.88;;;20.00;63.66
73633;BME280;61927;50.080;14.418;2023-05-23T12:00:12;99109.78;;;20.16;63.30
73633;BME280;61927;50.080;14.418;2023-05-23T12:02:39;99103.75;;;20.30;62.67
73633;BME280;61927;50.080;14.418;2023-05-23T12:05:10;99109.91;;;20.57;61.55
73633;BME280;61927;50.080;14.418;2023-05-23T12:07:45;99103.00;;;20.71;61.72
73633;BME280;61927;50.080;14.418;2023-05-23T12:10:13;99099.78;;;21.00;60.96
73633;BME280;61927;50.080;14.418;2023-05-23T12:12:40;99085.78;;;21.28;59.42
73633;BME280;61927;50.080;14.418;2023-05-23T12:15:11;99079.97;;;21.56;58.12
73633;BME280;61927;50.080;14.418;2023-05-23T12:17:38;99085.81;;;21.76;57.58
73633;BME280;61927;50.080;14.418;2023-05-23T12:20:05;99081.88;;;21.86;57.02
73633;BME280;61927;50.080;14.418;2023-05-23T12:22:31;99083.75;;;21.86;56.08
73633;BME280;61927;50.080;14.418;2023-05-23T12:24:58;99079.06;;;21.72;56.84
73633;BME280;61927;50.080;14.418;2023-05-23T12:27:34;99087.00;;;21.73;56.55
73633;BME280;61927;50.080;14.418;2023-05-23T12:30:06;99079.06;;;21.72;56.41
73633;BME280;61927;50.080;14.418;2023-05-23T12:32:34;99078.34;;;21.86;56.53
73633;BME280;61927;50.080;14.418;2023-05-23T12:35:00;99090.94;;;22.02;56.86
73633;BME280;61927;50.080;14.418;2023-05-23T12:37:25;99083.84;;;22.01;55.80
73633;BME280;61927;50.080;14.418;2023-05-23T12:39:51;99082.59;;;22.19;55.08
73633;BME280;61927;50.080;14.418;2023-05-23T12:42:17;99090.13;;;22.32;53.94
73633;BME280;61927;50.080;14.418;2023-05-23T12:44:43;99083.16;;;22.38;52.82
73633;BME280;61927;50.080;14.418;2023-05-23T12:47:10;99077.84;;;22.21;52.31
73633;BME280;61927;50.080;14.418;2023-05-23T12:49:36;99079.56;;;21.75;53.40
73633;BME280;61927;50.080;14.418;2023-05-23T12:52:02;99085.38;;;21.56;54.49
73633;BME280;61927;50.080;14.418;2023-05-23T12:54:28;99085.06;;;21.43;54.68
73633;BME280;61927;50.080;14.418;2023-05-23T12:56:53;99081.41;;;21.27;55.39
73633;BME280;61927;50.080;14.418;2023-05-23T12:59:19;99084.09;;;21.36;55.53
73633;BME280;61927;50.080;14.418;2023-05-23T13:01:45;99093.31;;;21.49;55.37
73633;BME280;61927;50.080;14.418;2023-05-23T13:04:11;99089.50;;;21.27;54.81
73633;BME280;61927;50.080;14.418;2023-05-23T13:06:37;99093.91;;;20.96;56.15
73633;BME280;61927;50.080;14.418;2023-05-23T13:09:03;99096.25;;;20.91;56.54
73633;BME280;61927;50.080;14.418;2023-05-23T13:11:28;99099.28;;;20.80;56.42
73633;BME280;61927;50.080;14.418;2023-05-23T13:13:55;99102.81;;;20.96;56.31
73633;BME280;61927;50.080;14.418;2023-05-23T13:16:21;99089.34;;;20.88;56.71
73633;BME280;61927;50.080;14.418;2023-05-23T13:18:47;99099.63;;;20.77;57.37